createdAt,value
2023-03-30T00:01:23.959Z,15.20
2023-03-30T00:06:25.660Z,12.95
2023-03-30T00:11:27.023Z,19.67
2023-03-30T00:16:27.899Z,13.30
2023-03-30T00:21:29.110Z,11.60
2023-03-30T00:26:30.182Z,11.15
2023-03-30T00:31:30.928Z,12.32
2023-03-30T00:36:36.302Z,10.77
2023-03-30T00:41:37.218Z,9.90
2023-03-30T00:46:40.277Z,9.45
2023-03-30T00:51:42.269Z,16.02
2023-03-30T00:56:43.497Z,12.37
2023-03-30T01:01:49.540Z,11.50
2023-03-30T01:06:51.438Z,9.18
2023-03-30T01:11:52.468Z,8.85
2023-03-30T01:17:15.830Z,9.73
2023-03-30T01:24:04.116Z,12.30
2023-03-30T01:29:29.199Z,17.80
2023-03-30T01:38:38.086Z,17.05
2023-03-30T01:43:54.288Z,12.98
2023-03-30T01:49:27.390Z,15.60
2023-03-30T01:54:36.128Z,11.12
2023-03-30T01:59:45.969Z,13.60
2023-03-30T02:04:52.908Z,16.35
2023-03-30T02:09:58.123Z,12.70
2023-03-30T02:15:03.998Z,12.93
2023-03-30T02:20:08.677Z,9.10
2023-03-30T02:25:11.831Z,13.88
2023-03-30T02:30:13.999Z,10.30
2023-03-30T02:35:47.162Z,10.30
2023-03-30T02:46:19.177Z,11.57
2023-03-30T02:52:16.841Z,13.30
2023-03-30T02:57:46.182Z,13.82
2023-03-30T03:03:14.172Z,11.55
2023-03-30T03:08:18.605Z,6.50
2023-03-30T03:13:21.268Z,9.82
2023-03-30T03:18:23.587Z,12.18
2023-03-30T03:23:24.994Z,11.05
2023-03-30T03:28:28.969Z,8.15
2023-03-30T03:33:35.525Z,11.63
2023-03-30T03:38:43.953Z,9.13
2023-03-30T03:43:45.019Z,10.13
2023-03-30T03:48:46.371Z,11.07
2023-03-30T03:53:48.857Z,16.33
2023-03-30T03:58:50.418Z,17.55
2023-03-30T04:03:51.279Z,13.68
2023-03-30T04:08:52.568Z,11.10
2023-03-30T04:16:30.798Z,13.13
2023-03-30T04:22:32.931Z,9.93
2023-03-30T04:27:55.181Z,11.60
2023-03-30T04:33:52.604Z,13.25
2023-03-30T04:39:12.910Z,19.23
2023-03-30T04:44:25.359Z,19.87
2023-03-30T04:49:50.594Z,21.15
2023-03-30T04:55:48.932Z,17.17
2023-03-30T05:01:08.086Z,17.00
2023-03-30T05:06:37.242Z,15.27
2023-03-30T05:11:56.454Z,20.62
2023-03-30T05:18:28.088Z,16.73
2023-03-30T05:23:43.273Z,15.00
2023-03-30T05:29:18.361Z,15.38
2023-03-30T05:34:37.622Z,15.80
2023-03-30T05:39:54.496Z,14.30
2023-03-30T05:45:07.896Z,14.02
2023-03-30T05:50:27.200Z,12.63
2023-03-30T05:55:32.543Z,11.40
2023-03-30T06:00:53.378Z,12.63
2023-03-30T06:06:07.142Z,16.02
2023-03-30T06:11:09.236Z,12.75
2023-03-30T06:16:18.850Z,14.45
2023-03-30T06:21:21.100Z,20.03
2023-03-30T06:27:08.487Z,14.02
2023-03-30T06:32:10.434Z,8.03
2023-03-30T06:39:06.509Z,15.15
2023-03-30T06:44:14.016Z,14.55
2023-03-30T06:49:15.052Z,20.17
2023-03-30T06:54:33.870Z,16.17
2023-03-30T06:59:38.690Z,12.02
2023-03-30T07:05:14.887Z,18.20
2023-03-30T07:11:04.053Z,14.00
2023-03-30T07:16:07.278Z,13.70
2023-03-30T07:21:08.634Z,10.50
2023-03-30T07:26:13.433Z,10.35
2023-03-30T07:31:28.429Z,11.23
2023-03-30T07:36:29.805Z,17.20
2023-03-30T07:41:30.848Z,12.40
2023-03-30T07:46:32.861Z,9.90
2023-03-30T07:51:34.859Z,11.18
2023-03-30T07:56:42.138Z,14.07
2023-03-30T08:01:44.142Z,7.40
2023-03-30T08:07:06.954Z,7.65
2023-03-30T08:12:08.626Z,8.43
2023-03-30T08:17:09.421Z,11.30
2023-03-30T08:22:10.313Z,16.95
2023-03-30T08:27:11.283Z,9.20
2023-03-30T08:32:12.128Z,12.43
2023-03-30T08:37:13.100Z,9.85
2023-03-30T08:44:56.497Z,7.05
2023-03-30T08:50:18.401Z,8.57
2023-03-30T08:55:45.404Z,7.85
2023-03-30T09:00:58.425Z,7.93
2023-03-30T09:06:18.674Z,12.00
2023-03-30T09:11:31.162Z,10.27
2023-03-30T09:16:45.734Z,11.43
2023-03-30T09:21:49.198Z,10.35
2023-03-30T09:26:59.246Z,7.62
2023-03-30T09:32:12.782Z,9.05
2023-03-30T09:37:18.005Z,8.52
2023-03-30T09:43:04.078Z,7.47
2023-03-30T09:48:07.841Z,7.95
2023-03-30T09:53:28.442Z,8.60
2023-03-30T09:58:33.596Z,5.62
2023-03-30T10:03:35.093Z,8.77
2023-03-30T10:08:54.662Z,4.20
2023-03-30T10:13:57.035Z,7.57
2023-03-30T10:19:04.763Z,4.87
2023-03-30T10:24:22.013Z,6.80
2023-03-30T10:29:26.562Z,8.23
2023-03-30T10:35:17.213Z,8.38
2023-03-30T10:40:33.339Z,5.30
2023-03-30T10:45:40.046Z,5.68
2023-03-30T10:51:09.875Z,4.53
2023-03-30T10:58:03.317Z,4.65
2023-03-30T11:03:26.678Z,6.27
2023-03-30T11:08:37.012Z,5.70
2023-03-30T11:13:42.276Z,5.22
2023-03-30T11:18:56.275Z,6.35
2023-03-30T11:24:10.451Z,9.45
2023-03-30T11:29:30.592Z,10.57
2023-03-30T11:34:45.699Z,8.20
2023-03-30T11:39:58.272Z,5.03
2023-03-30T11:45:00.951Z,10.65
2023-03-30T11:51:45.128Z,3.58
2023-03-30T12:03:35.268Z,10.05
2023-03-30T12:09:34.275Z,6.87
2023-03-30T12:17:33.484Z,7.03
2023-03-30T12:22:44.565Z,4.15
2023-03-30T12:28:15.332Z,4.20
2023-03-30T12:33:27.417Z,5.28
2023-03-30T12:38:42.723Z,10.30
2023-03-30T12:44:04.037Z,8.43
2023-03-30T12:53:49.793Z,9.65
2023-03-30T13:01:59.893Z,5.30
2023-03-30T13:07:04.514Z,8.48
2023-03-30T13:12:39.106Z,5.20
2023-03-30T13:24:07.674Z,21.85
2023-03-30T13:29:10.746Z,8.20
2023-03-30T13:41:33.115Z,7.63
2023-03-30T13:47:07.548Z,13.77
2023-03-30T13:52:13.852Z,5.40
2023-03-30T13:57:27.097Z,7.68
2023-03-30T14:02:30.062Z,4.65
2023-03-30T14:07:40.357Z,9.38
2023-03-30T14:12:42.750Z,6.57
2023-03-30T14:17:49.225Z,9.18
2023-03-30T14:22:51.715Z,8.68
2023-03-30T14:27:52.763Z,6.77
2023-03-30T14:33:11.747Z,8.70
2023-03-30T14:38:33.830Z,9.02
2023-03-30T14:43:39.526Z,6.78
2023-03-30T14:48:43.320Z,5.50
2023-03-30T14:53:44.540Z,6.30
2023-03-30T14:58:47.058Z,10.65
2023-03-30T15:03:48.769Z,5.53
2023-03-30T15:08:49.882Z,6.47
2023-03-30T15:13:53.255Z,5.62
2023-03-30T15:19:43.066Z,4.62
2023-03-30T15:24:44.375Z,5.45
2023-03-30T15:29:46.378Z,5.68
2023-03-30T15:35:39.022Z,9.60
2023-03-30T15:40:46.636Z,4.75
2023-03-30T15:46:01.326Z,5.62
2023-03-30T15:51:09.520Z,3.08
2023-03-30T15:56:38.823Z,3.55
2023-03-30T16:02:01.153Z,3.17
2023-03-30T16:07:13.426Z,5.20
2023-03-30T16:12:21.172Z,4.15
2023-03-30T16:17:22.391Z,4.93
2023-03-30T16:22:23.196Z,5.97
2023-03-30T16:27:24.031Z,12.10
2023-03-30T16:32:29.875Z,5.50
2023-03-30T16:37:36.165Z,8.35
2023-03-30T16:42:36.962Z,6.87
2023-03-30T16:47:37.873Z,10.57
2023-03-30T16:52:38.704Z,11.95
2023-03-30T16:57:39.835Z,16.12
2023-03-30T17:02:40.693Z,11.85
2023-03-30T17:07:42.051Z,9.65
2023-03-30T17:12:42.873Z,10.73
2023-03-30T17:17:43.779Z,11.45
2023-03-30T17:22:44.593Z,12.77
2023-03-30T17:27:50.115Z,13.57
2023-03-30T17:32:51.737Z,11.30
2023-03-30T17:37:54.832Z,10.43
2023-03-30T17:42:56.031Z,13.48
2023-03-30T17:47:57.783Z,14.95
2023-03-30T17:52:59.873Z,11.15
2023-03-30T17:58:01.424Z,12.37
2023-03-30T18:03:02.250Z,11.45
2023-03-30T18:08:04.176Z,7.65
2023-03-30T18:13:05.849Z,7.28
2023-03-30T18:18:06.656Z,12.32
2023-03-30T18:23:08.394Z,7.68
2023-03-30T18:28:16.486Z,13.25
2023-03-30T18:33:17.467Z,23.23
2023-03-30T18:38:20.850Z,14.50
2023-03-30T18:43:21.918Z,14.45
2023-03-30T18:48:22.735Z,10.38
2023-03-30T18:53:27.040Z,9.25
2023-03-30T18:58:33.027Z,8.20
2023-03-30T19:03:34.047Z,11.02
2023-03-30T19:08:34.924Z,12.27
2023-03-30T19:13:35.930Z,9.88
2023-03-30T19:18:36.718Z,14.57
2023-03-30T19:23:37.498Z,9.05
2023-03-30T19:28:39.811Z,11.23
2023-03-30T19:33:41.086Z,5.97
2023-03-30T19:38:43.169Z,18.27
2023-03-30T19:43:44.747Z,8.02
2023-03-30T19:48:45.567Z,8.93
2023-03-30T19:53:46.528Z,6.72
2023-03-30T19:58:47.622Z,7.85
2023-03-30T20:03:48.479Z,8.10
2023-03-30T20:08:49.429Z,7.78
2023-03-30T20:13:50.901Z,6.22
2023-03-30T20:18:52.911Z,5.70
2023-03-30T20:23:55.112Z,5.82
2023-03-30T20:28:56.127Z,8.10
2023-03-30T20:33:57.827Z,4.97
2023-03-30T20:38:58.703Z,3.62
2023-03-30T20:44:02.511Z,2.50
2023-03-30T20:49:05.088Z,8.63
2023-03-30T20:54:06.174Z,5.62
2023-03-30T20:59:07.384Z,5.65
2023-03-30T21:04:08.281Z,7.82
2023-03-30T21:09:09.633Z,6.00
2023-03-30T21:14:12.503Z,9.48
2023-03-30T21:19:13.310Z,8.90
2023-03-30T21:24:16.029Z,8.57
2023-03-30T21:29:17.119Z,4.95
2023-03-30T21:34:17.969Z,7.68
2023-03-30T21:39:18.738Z,4.72
2023-03-30T21:44:19.566Z,3.92
2023-03-30T21:49:20.338Z,4.07
2023-03-30T21:54:21.118Z,5.20
2023-03-30T21:59:21.968Z,11.38
2023-03-30T22:04:22.970Z,6.65
2023-03-30T22:09:23.778Z,5.95
2023-03-30T22:14:24.763Z,3.08
2023-03-30T22:19:25.658Z,4.12
2023-03-30T22:24:26.459Z,5.60
2023-03-30T22:29:27.318Z,4.35
2023-03-30T22:34:28.230Z,6.28
2023-03-30T22:39:29.173Z,5.95
2023-03-30T22:44:30.203Z,4.20
2023-03-30T22:49:30.977Z,8.55
2023-03-30T22:54:32.046Z,6.55
2023-03-30T22:59:32.970Z,4.68
2023-03-30T23:04:33.838Z,10.57
2023-03-30T23:09:34.664Z,10.45
2023-03-30T23:14:37.117Z,12.05
2023-03-30T23:19:37.963Z,11.50
2023-03-30T23:24:38.732Z,6.70
2023-03-30T23:29:40.141Z,6.93
2023-03-30T23:34:42.190Z,10.57
2023-03-30T23:39:42.960Z,7.97
2023-03-30T23:44:44.336Z,11.57
2023-03-30T23:49:45.350Z,13.23
2023-03-30T23:54:51.336Z,16.12
2023-03-30T23:59:52.293Z,14.40
